sensor_id;sensor_type;location;lat;lon;timestamp;P1;durP1;ratioP1;P2;durP2;ratioP2
5010;SDS011;2524;54.364;10.072;2022-11-15T00:00:25;31.00;;;20.40;;
5010;SDS011;2524;54.364;10.072;2022-11-15T00:02:54;23.13;;;16.20;;
5010;SDS011;2524;54.364;10.072;2022-11-15T00:05:20;20.37;;;14.90;;
5010;SDS011;2524;54.364;10.072;2022-11-15T00:07:46;26.10;;;19.33;;
5010;SDS011;2524;54.364;10.072;2022-11-15T00:10:12;25.13;;;16.37;;
5010;SDS011;2524;54.364;10.072;2022-11-15T00:12:37;23.50;;;15.60;;
5010;SDS011;2524;54.364;10.072;2022-11-15T00:15:03;20.77;;;14.37;;
5010;SDS011;2524;54.364;10.072;2022-11-15T00:17:29;20.70;;;13.57;;
5010;SDS011;2524;54.364;10.072;2022-11-15T00:19:55;21.30;;;14.97;;
5010;SDS011;2524;54.364;10.072;2022-11-15T00:22:20;19.73;;;14.40;;
5010;SDS011;2524;54.364;10.072;2022-11-15T00:24:46;19.50;;;14.70;;
5010;SDS011;2524;54.364;10.072;2022-11-15T00:27:12;19.00;;;14.03;;
5010;SDS011;2524;54.364;10.072;2022-11-15T00:29:37;21.43;;;16.00;;
5010;SDS011;2524;54.364;10.072;2022-11-15T00:32:08;22.90;;;15.77;;
5010;SDS011;2524;54.364;10.072;2022-11-15T00:34:36;18.30;;;13.50;;
5010;SDS011;2524;54.364;10.072;2022-11-15T00:37:02;18.20;;;13.73;;
5010;SDS011;2524;54.364;10.072;2022-11-15T00:39:28;18.23;;;14.03;;
5010;SDS011;2524;54.364;10.072;2022-11-15T00:41:53;21.67;;;15.77;;
5010;SDS011;2524;54.364;10.072;2022-11-15T00:44:19;18.33;;;13.43;;
5010;SDS011;2524;54.364;10.072;2022-11-15T00:46:44;16.00;;;12.77;;
5010;SDS011;2524;54.364;10.072;2022-11-15T00:49:10;18.80;;;14.57;;
5010;SDS011;2524;54.364;10.072;2022-11-15T00:51:35;25.77;;;17.73;;
5010;SDS011;2524;54.364;10.072;2022-11-15T00:54:01;19.83;;;14.60;;
5010;SDS011;2524;54.364;10.072;2022-11-15T00:56:27;15.03;;;11.70;;
5010;SDS011;2524;54.364;10.072;2022-11-15T00:58:52;19.10;;;14.17;;
5010;SDS011;2524;54.364;10.072;2022-11-15T01:01:18;20.40;;;14.03;;
5010;SDS011;2524;54.364;10.072;2022-11-15T01:03:44;19.80;;;13.17;;
5010;SDS011;2524;54.364;10.072;2022-11-15T01:06:10;17.00;;;12.90;;
5010;SDS011;2524;54.364;10.072;2022-11-15T01:08:37;20.10;;;14.70;;
5010;SDS011;2524;54.364;10.072;2022-11-15T01:11:04;18.17;;;13.87;;
5010;SDS011;2524;54.364;10.072;2022-11-15T01:13:32;16.77;;;13.33;;
5010;SDS011;2524;54.364;10.072;2022-11-15T01:16:13;17.73;;;12.53;;
5010;SDS011;2524;54.364;10.072;2022-11-15T01:18:42;16.97;;;13.07;;
5010;SDS011;2524;54.364;10.072;2022-11-15T01:21:08;17.70;;;12.97;;
5010;SDS011;2524;54.364;10.072;2022-11-15T01:23:35;19.90;;;14.97;;
5010;SDS011;2524;54.364;10.072;2022-11-15T01:26:01;14.53;;;11.67;;
5010;SDS011;2524;54.364;10.072;2022-11-15T01:28:32;17.93;;;13.67;;
5010;SDS011;2524;54.364;10.072;2022-11-15T01:30:59;16.33;;;12.37;;
5010;SDS011;2524;54.364;10.072;2022-11-15T01:33:27;15.87;;;12.73;;
5010;SDS011;2524;54.364;10.072;2022-11-15T01:35:55;17.40;;;13.23;;
5010;SDS011;2524;54.364;10.072;2022-11-15T01:38:21;22.03;;;14.87;;
5010;SDS011;2524;54.364;10.072;2022-11-15T01:40:47;21.53;;;15.00;;
5010;SDS011;2524;54.364;10.072;2022-11-15T01:43:20;18.03;;;14.50;;
5010;SDS011;2524;54.364;10.072;2022-11-15T01:48:32;24.67;;;17.40;;
5010;SDS011;2524;54.364;10.072;2022-11-15T01:50:59;19.37;;;14.93;;
5010;SDS011;2524;54.364;10.072;2022-11-15T01:53:27;19.80;;;14.67;;
5010;SDS011;2524;54.364;10.072;2022-11-15T01:55:54;21.63;;;16.50;;
5010;SDS011;2524;54.364;10.072;2022-11-15T01:58:20;39.67;;;25.97;;
5010;SDS011;2524;54.364;10.072;2022-11-15T02:00:46;30.03;;;20.33;;
5010;SDS011;2524;54.364;10.072;2022-11-15T02:03:14;25.73;;;17.40;;
5010;SDS011;2524;54.364;10.072;2022-11-15T02:05:40;27.40;;;19.00;;
5010;SDS011;2524;54.364;10.072;2022-11-15T02:08:08;26.10;;;18.73;;
5010;SDS011;2524;54.364;10.072;2022-11-15T02:10:44;19.77;;;14.40;;
5010;SDS011;2524;54.364;10.072;2022-11-15T02:13:14;23.70;;;16.63;;
5010;SDS011;2524;54.364;10.072;2022-11-15T02:15:51;22.17;;;15.43;;
5010;SDS011;2524;54.364;10.072;2022-11-15T02:18:35;19.80;;;14.23;;
5010;SDS011;2524;54.364;10.072;2022-11-15T02:21:17;24.70;;;17.90;;
5010;SDS011;2524;54.364;10.072;2022-11-15T02:24:09;20.17;;;15.87;;
5010;SDS011;2524;54.364;10.072;2022-11-15T02:27:02;22.10;;;16.27;;
5010;SDS011;2524;54.364;10.072;2022-11-15T02:32:28;25.80;;;18.63;;
5010;SDS011;2524;54.364;10.072;2022-11-15T02:35:12;25.27;;;18.43;;
5010;SDS011;2524;54.364;10.072;2022-11-15T02:37:57;20.23;;;16.03;;
5010;SDS011;2524;54.364;10.072;2022-11-15T02:43:12;25.57;;;19.10;;
5010;SDS011;2524;54.364;10.072;2022-11-15T02:46:18;32.83;;;22.20;;
5010;SDS011;2524;54.364;10.072;2022-11-15T02:49:08;25.30;;;18.67;;
5010;SDS011;2524;54.364;10.072;2022-11-15T02:51:36;36.03;;;24.70;;
5010;SDS011;2524;54.364;10.072;2022-11-15T02:54:01;31.37;;;22.37;;
5010;SDS011;2524;54.364;10.072;2022-11-15T02:56:27;33.63;;;24.10;;
5010;SDS011;2524;54.364;10.072;2022-11-15T02:58:58;30.10;;;19.70;;
5010;SDS011;2524;54.364;10.072;2022-11-15T03:01:30;30.20;;;20.13;;
5010;SDS011;2524;54.364;10.072;2022-11-15T03:04:08;22.30;;;16.63;;
5010;SDS011;2524;54.364;10.072;2022-11-15T03:09:35;26.20;;;19.93;;
5010;SDS011;2524;54.364;10.072;2022-11-15T03:12:13;29.53;;;21.50;;
5010;SDS011;2524;54.364;10.072;2022-11-15T03:15:00;30.00;;;21.77;;
5010;SDS011;2524;54.364;10.072;2022-11-15T03:17:41;30.43;;;20.73;;
5010;SDS011;2524;54.364;10.072;2022-11-15T03:20:13;27.40;;;18.60;;
5010;SDS011;2524;54.364;10.072;2022-11-15T03:22:42;25.83;;;18.57;;
5010;SDS011;2524;54.364;10.072;2022-11-15T03:25:10;36.20;;;23.83;;
5010;SDS011;2524;54.364;10.072;2022-11-15T03:27:41;39.43;;;25.20;;
5010;SDS011;2524;54.364;10.072;2022-11-15T03:30:09;35.53;;;23.57;;
5010;SDS011;2524;54.364;10.072;2022-11-15T03:32:55;37.30;;;24.70;;
5010;SDS011;2524;54.364;10.072;2022-11-15T03:35:27;34.53;;;23.60;;
5010;SDS011;2524;54.364;10.072;2022-11-15T03:38:11;36.03;;;24.50;;
5010;SDS011;2524;54.364;10.072;2022-11-15T03:40:47;38.10;;;25.63;;
5010;SDS011;2524;54.364;10.072;2022-11-15T03:46:08;21.50;;;15.93;;
5010;SDS011;2524;54.364;10.072;2022-11-15T03:51:36;23.37;;;17.87;;
5010;SDS011;2524;54.364;10.072;2022-11-15T03:54:03;21.83;;;16.20;;
5010;SDS011;2524;54.364;10.072;2022-11-15T03:56:29;31.10;;;21.43;;
5010;SDS011;2524;54.364;10.072;2022-11-15T03:58:55;21.43;;;17.37;;
5010;SDS011;2524;54.364;10.072;2022-11-15T04:01:20;26.63;;;18.97;;
5010;SDS011;2524;54.364;10.072;2022-11-15T04:03:46;21.80;;;16.20;;
5010;SDS011;2524;54.364;10.072;2022-11-15T04:06:11;21.97;;;16.17;;
5010;SDS011;2524;54.364;10.072;2022-11-15T04:08:37;23.17;;;17.47;;
5010;SDS011;2524;54.364;10.072;2022-11-15T04:11:02;25.20;;;17.90;;
5010;SDS011;2524;54.364;10.072;2022-11-15T04:13:28;25.30;;;19.87;;
5010;SDS011;2524;54.364;10.072;2022-11-15T04:15:54;24.97;;;19.17;;
5010;SDS011;2524;54.364;10.072;2022-11-15T04:18:19;29.87;;;21.80;;
5010;SDS011;2524;54.364;10.072;2022-11-15T04:20:45;22.77;;;17.23;;
5010;SDS011;2524;54.364;10.072;2022-11-15T04:23:29;22.23;;;15.60;;
5010;SDS011;2524;54.364;10.072;2022-11-15T04:26:30;28.40;;;20.60;;
5010;SDS011;2524;54.364;10.072;2022-11-15T04:28:55;31.30;;;21.90;;
5010;SDS011;2524;54.364;10.072;2022-11-15T04:31:40;28.77;;;21.37;;
5010;SDS011;2524;54.364;10.072;2022-11-15T04:34:05;24.53;;;18.70;;
5010;SDS011;2524;54.364;10.072;2022-11-15T04:36:31;25.23;;;17.50;;
5010;SDS011;2524;54.364;10.072;2022-11-15T04:39:15;31.73;;;22.70;;
5010;SDS011;2524;54.364;10.072;2022-11-15T04:41:40;28.40;;;20.13;;
5010;SDS011;2524;54.364;10.072;2022-11-15T04:44:06;26.03;;;19.53;;
5010;SDS011;2524;54.364;10.072;2022-11-15T04:46:32;23.80;;;18.13;;
5010;SDS011;2524;54.364;10.072;2022-11-15T04:48:57;23.10;;;18.07;;
5010;SDS011;2524;54.364;10.072;2022-11-15T04:51:23;31.63;;;21.63;;
5010;SDS011;2524;54.364;10.072;2022-11-15T04:53:49;23.30;;;17.90;;
5010;SDS011;2524;54.364;10.072;2022-11-15T04:56:14;24.60;;;18.10;;
5010;SDS011;2524;54.364;10.072;2022-11-15T04:58:40;31.97;;;23.23;;
5010;SDS011;2524;54.364;10.072;2022-11-15T05:01:09;26.13;;;19.80;;
5010;SDS011;2524;54.364;10.072;2022-11-15T05:03:41;31.03;;;22.03;;
5010;SDS011;2524;54.364;10.072;2022-11-15T05:06:26;25.50;;;19.60;;
5010;SDS011;2524;54.364;10.072;2022-11-15T05:08:51;26.53;;;19.43;;
5010;SDS011;2524;54.364;10.072;2022-11-15T05:11:17;21.50;;;16.00;;
5010;SDS011;2524;54.364;10.072;2022-11-15T05:13:43;25.00;;;18.57;;
5010;SDS011;2524;54.364;10.072;2022-11-15T05:16:08;24.67;;;17.87;;
5010;SDS011;2524;54.364;10.072;2022-11-15T05:18:34;33.53;;;22.10;;
5010;SDS011;2524;54.364;10.072;2022-11-15T05:21:06;28.17;;;20.00;;
5010;SDS011;2524;54.364;10.072;2022-11-15T05:23:33;29.20;;;21.40;;
5010;SDS011;2524;54.364;10.072;2022-11-15T05:25:59;22.53;;;17.20;;
5010;SDS011;2524;54.364;10.072;2022-11-15T05:28:25;25.23;;;18.77;;
5010;SDS011;2524;54.364;10.072;2022-11-15T05:30:51;30.90;;;22.07;;
5010;SDS011;2524;54.364;10.072;2022-11-15T05:33:17;30.63;;;22.07;;
5010;SDS011;2524;54.364;10.072;2022-11-15T05:35:45;27.67;;;20.70;;
5010;SDS011;2524;54.364;10.072;2022-11-15T05:38:12;23.97;;;18.37;;
5010;SDS011;2524;54.364;10.072;2022-11-15T05:40:37;26.83;;;18.10;;
5010;SDS011;2524;54.364;10.072;2022-11-15T05:43:03;25.03;;;17.60;;
5010;SDS011;2524;54.364;10.072;2022-11-15T05:45:29;26.63;;;19.13;;
5010;SDS011;2524;54.364;10.072;2022-11-15T05:47:57;25.07;;;19.57;;
5010;SDS011;2524;54.364;10.072;2022-11-15T05:50:25;23.73;;;18.63;;
5010;SDS011;2524;54.364;10.072;2022-11-15T05:52:52;25.67;;;19.27;;
5010;SDS011;2524;54.364;10.072;2022-11-15T05:55:19;28.63;;;21.30;;
5010;SDS011;2524;54.364;10.072;2022-11-15T05:57:45;28.77;;;19.90;;
5010;SDS011;2524;54.364;10.072;2022-11-15T06:00:11;27.60;;;18.10;;
5010;SDS011;2524;54.364;10.072;2022-11-15T06:02:37;23.70;;;16.50;;
5010;SDS011;2524;54.364;10.072;2022-11-15T06:05:02;16.10;;;13.77;;
5010;SDS011;2524;54.364;10.072;2022-11-15T06:07:29;27.43;;;18.20;;
5010;SDS011;2524;54.364;10.072;2022-11-15T06:09:54;19.17;;;15.43;;
5010;SDS011;2524;54.364;10.072;2022-11-15T06:12:20;23.00;;;17.03;;
5010;SDS011;2524;54.364;10.072;2022-11-15T06:14:46;21.07;;;16.07;;
5010;SDS011;2524;54.364;10.072;2022-11-15T06:17:11;17.53;;;13.50;;
5010;SDS011;2524;54.364;10.072;2022-11-15T06:19:37;17.70;;;13.00;;
5010;SDS011;2524;54.364;10.072;2022-11-15T06:22:02;15.03;;;11.97;;
5010;SDS011;2524;54.364;10.072;2022-11-15T06:24:28;16.80;;;13.20;;
5010;SDS011;2524;54.364;10.072;2022-11-15T06:26:53;15.10;;;11.83;;
5010;SDS011;2524;54.364;10.072;2022-11-15T06:29:19;12.53;;;10.90;;
5010;SDS011;2524;54.364;10.072;2022-11-15T06:31:45;13.07;;;10.77;;
5010;SDS011;2524;54.364;10.072;2022-11-15T06:34:10;16.17;;;12.07;;
5010;SDS011;2524;54.364;10.072;2022-11-15T06:36:36;10.57;;;9.23;;
5010;SDS011;2524;54.364;10.072;2022-11-15T06:39:05;10.03;;;8.63;;
5010;SDS011;2524;54.364;10.072;2022-11-15T06:41:33;9.40;;;8.40;;
5010;SDS011;2524;54.364;10.072;2022-11-15T06:44:00;10.27;;;9.00;;
5010;SDS011;2524;54.364;10.072;2022-11-15T06:46:25;8.60;;;7.80;;
5010;SDS011;2524;54.364;10.072;2022-11-15T06:48:51;10.53;;;8.73;;
5010;SDS011;2524;54.364;10.072;2022-11-15T06:51:17;15.87;;;12.27;;
5010;SDS011;2524;54.364;10.072;2022-11-15T06:53:43;12.53;;;10.23;;
5010;SDS011;2524;54.364;10.072;2022-11-15T06:56:09;17.80;;;13.90;;
5010;SDS011;2524;54.364;10.072;2022-11-15T06:58:35;19.43;;;15.50;;
5010;SDS011;2524;54.364;10.072;2022-11-15T07:01:05;17.53;;;14.63;;
5010;SDS011;2524;54.364;10.072;2022-11-15T07:03:36;18.47;;;14.97;;
5010;SDS011;2524;54.364;10.072;2022-11-15T07:06:03;30.20;;;20.63;;
5010;SDS011;2524;54.364;10.072;2022-11-15T07:08:29;32.53;;;23.50;;
5010;SDS011;2524;54.364;10.072;2022-11-15T07:11:02;24.60;;;18.20;;
5010;SDS011;2524;54.364;10.072;2022-11-15T07:13:29;27.50;;;19.63;;
5010;SDS011;2524;54.364;10.072;2022-11-15T07:15:58;26.17;;;18.70;;
5010;SDS011;2524;54.364;10.072;2022-11-15T07:18:26;25.13;;;18.47;;
5010;SDS011;2524;54.364;10.072;2022-11-15T07:20:52;28.10;;;20.40;;
5010;SDS011;2524;54.364;10.072;2022-11-15T07:23:18;31.43;;;24.20;;
5010;SDS011;2524;54.364;10.072;2022-11-15T07:25:43;29.43;;;20.67;;
5010;SDS011;2524;54.364;10.072;2022-11-15T07:28:09;30.13;;;21.97;;
5010;SDS011;2524;54.364;10.072;2022-11-15T07:30:35;28.80;;;20.73;;
5010;SDS011;2524;54.364;10.072;2022-11-15T07:33:00;23.70;;;17.60;;
5010;SDS011;2524;54.364;10.072;2022-11-15T07:35:26;31.67;;;22.73;;
5010;SDS011;2524;54.364;10.072;2022-11-15T07:38:02;27.03;;;20.17;;
5010;SDS011;2524;54.364;10.072;2022-11-15T07:40:29;29.83;;;19.47;;
5010;SDS011;2524;54.364;10.072;2022-11-15T07:43:03;28.27;;;19.27;;
5010;SDS011;2524;54.364;10.072;2022-11-15T07:45:30;24.57;;;18.40;;
5010;SDS011;2524;54.364;10.072;2022-11-15T07:47:58;29.93;;;20.23;;
5010;SDS011;2524;54.364;10.072;2022-11-15T07:50:24;28.73;;;19.30;;
5010;SDS011;2524;54.364;10.072;2022-11-15T07:52:57;21.53;;;16.97;;
5010;SDS011;2524;54.364;10.072;2022-11-15T07:55:24;25.30;;;19.90;;
5010;SDS011;2524;54.364;10.072;2022-11-15T07:57:52;26.70;;;19.90;;
5010;SDS011;2524;54.364;10.072;2022-11-15T08:00:18;26.57;;;19.30;;
5010;SDS011;2524;54.364;10.072;2022-11-15T08:02:44;37.63;;;24.37;;
5010;SDS011;2524;54.364;10.072;2022-11-15T08:05:10;34.97;;;24.27;;
5010;SDS011;2524;54.364;10.072;2022-11-15T08:07:36;32.20;;;22.57;;
5010;SDS011;2524;54.364;10.072;2022-11-15T08:10:03;29.03;;;21.30;;
5010;SDS011;2524;54.364;10.072;2022-11-15T08:12:30;36.23;;;24.30;;
5010;SDS011;2524;54.364;10.072;2022-11-15T08:14:56;33.30;;;22.97;;
5010;SDS011;2524;54.364;10.072;2022-11-15T08:17:22;32.77;;;23.60;;
5010;SDS011;2524;54.364;10.072;2022-11-15T08:19:48;31.43;;;23.03;;
5010;SDS011;2524;54.364;10.072;2022-11-15T08:22:14;32.60;;;22.00;;
5010;SDS011;2524;54.364;10.072;2022-11-15T08:24:40;29.90;;;21.57;;
5010;SDS011;2524;54.364;10.072;2022-11-15T08:27:05;27.47;;;20.30;;
5010;SDS011;2524;54.364;10.072;2022-11-15T08:29:39;27.80;;;19.40;;
5010;SDS011;2524;54.364;10.072;2022-11-15T08:32:08;23.93;;;17.40;;
5010;SDS011;2524;54.364;10.072;2022-11-15T08:34:34;27.50;;;20.07;;
5010;SDS011;2524;54.364;10.072;2022-11-15T08:37:00;25.23;;;20.10;;
5010;SDS011;2524;54.364;10.072;2022-11-15T08:39:26;29.77;;;21.20;;
5010;SDS011;2524;54.364;10.072;2022-11-15T08:41:51;24.23;;;18.03;;
5010;SDS011;2524;54.364;10.072;2022-11-15T08:44:17;26.50;;;19.73;;
5010;SDS011;2524;54.364;10.072;2022-11-15T08:46:44;22.77;;;16.90;;
5010;SDS011;2524;54.364;10.072;2022-11-15T08:49:10;17.77;;;14.30;;
5010;SDS011;2524;54.364;10.072;2022-11-15T08:51:36;25.87;;;18.63;;
5010;SDS011;2524;54.364;10.072;2022-11-15T08:54:02;29.13;;;21.53;;
5010;SDS011;2524;54.364;10.072;2022-11-15T08:56:27;26.00;;;18.53;;
5010;SDS011;2524;54.364;10.072;2022-11-15T08:58:53;21.13;;;16.47;;
5010;SDS011;2524;54.364;10.072;2022-11-15T09:01:19;25.07;;;18.70;;
5010;SDS011;2524;54.364;10.072;2022-11-15T09:03:46;23.07;;;16.23;;
5010;SDS011;2524;54.364;10.072;2022-11-15T09:06:11;23.03;;;17.80;;
5010;SDS011;2524;54.364;10.072;2022-11-15T09:08:37;27.57;;;18.23;;
5010;SDS011;2524;54.364;10.072;2022-11-15T09:11:04;28.80;;;19.57;;
5010;SDS011;2524;54.364;10.072;2022-11-15T09:13:31;24.73;;;16.90;;
5010;SDS011;2524;54.364;10.072;2022-11-15T09:16:00;23.00;;;17.07;;
5010;SDS011;2524;54.364;10.072;2022-11-15T09:18:26;24.97;;;18.00;;
5010;SDS011;2524;54.364;10.072;2022-11-15T09:20:54;19.67;;;16.20;;
5010;SDS011;2524;54.364;10.072;2022-11-15T09:23:24;24.57;;;19.47;;
5010;SDS011;2524;54.364;10.072;2022-11-15T09:25:50;31.60;;;21.23;;
5010;SDS011;2524;54.364;10.072;2022-11-15T09:28:16;20.50;;;17.40;;
5010;SDS011;2524;54.364;10.072;2022-11-15T09:30:42;27.97;;;19.90;;
5010;SDS011;2524;54.364;10.072;2022-11-15T09:33:08;29.80;;;19.80;;
5010;SDS011;2524;54.364;10.072;2022-11-15T09:35:35;21.60;;;17.00;;
5010;SDS011;2524;54.364;10.072;2022-11-15T09:38:02;17.50;;;14.10;;
5010;SDS011;2524;54.364;10.072;2022-11-15T09:40:29;16.40;;;14.50;;
5010;SDS011;2524;54.364;10.072;2022-11-15T09:43:03;12.67;;;10.87;;
5010;SDS011;2524;54.364;10.072;2022-11-15T09:45:57;12.50;;;11.27;;
5010;SDS011;2524;54.364;10.072;2022-11-15T09:48:47;14.07;;;12.40;;
5010;SDS011;2524;54.364;10.072;2022-11-15T09:57:10;25.90;;;19.07;;
5010;SDS011;2524;54.364;10.072;2022-11-15T09:59:55;24.07;;;17.90;;
5010;SDS011;2524;54.364;10.072;2022-11-15T10:05:11;21.17;;;16.27;;
5010;SDS011;2524;54.364;10.072;2022-11-15T10:10:14;21.53;;;16.53;;
5010;SDS011;2524;54.364;10.072;2022-11-15T10:12:41;18.07;;;15.30;;
5010;SDS011;2524;54.364;10.072;2022-11-15T10:15:13;15.93;;;13.27;;
5010;SDS011;2524;54.364;10.072;2022-11-15T10:18:03;12.47;;;11.03;;
5010;SDS011;2524;54.364;10.072;2022-11-15T10:21:23;17.50;;;13.23;;
5010;SDS011;2524;54.364;10.072;2022-11-15T10:23:48;15.10;;;12.60;;
5010;SDS011;2524;54.364;10.072;2022-11-15T10:26:16;19.43;;;15.27;;
5010;SDS011;2524;54.364;10.072;2022-11-15T10:28:42;22.53;;;16.97;;
5010;SDS011;2524;54.364;10.072;2022-11-15T10:31:21;17.90;;;13.90;;
5010;SDS011;2524;54.364;10.072;2022-11-15T10:33:50;16.37;;;13.27;;
5010;SDS011;2524;54.364;10.072;2022-11-15T10:36:22;15.00;;;12.60;;
5010;SDS011;2524;54.364;10.072;2022-11-15T10:41:19;13.47;;;12.07;;
5010;SDS011;2524;54.364;10.072;2022-11-15T10:46:33;12.97;;;10.97;;
5010;SDS011;2524;54.364;10.072;2022-11-15T10:49:12;12.30;;;11.03;;
5010;SDS011;2524;54.364;10.072;2022-11-15T10:52:02;17.57;;;14.07;;
5010;SDS011;2524;54.364;10.072;2022-11-15T10:54:33;19.13;;;15.57;;
5010;SDS011;2524;54.364;10.072;2022-11-15T10:57:06;24.50;;;18.67;;
5010;SDS011;2524;54.364;10.072;2022-11-15T10:59:37;19.20;;;16.17;;
5010;SDS011;2524;54.364;10.072;2022-11-15T11:02:20;15.73;;;12.73;;
5010;SDS011;2524;54.364;10.072;2022-11-15T11:04:51;12.20;;;10.90;;
5010;SDS011;2524;54.364;10.072;2022-11-15T11:07:22;11.17;;;10.07;;
5010;SDS011;2524;54.364;10.072;2022-11-15T11:10:00;18.07;;;14.53;;
5010;SDS011;2524;54.364;10.072;2022-11-15T11:12:32;12.53;;;11.23;;
5010;SDS011;2524;54.364;10.072;2022-11-15T11:14:59;11.70;;;10.50;;
5010;SDS011;2524;54.364;10.072;2022-11-15T11:20:25;10.13;;;8.90;;
5010;SDS011;2524;54.364;10.072;2022-11-15T11:26:04;9.17;;;8.27;;
5010;SDS011;2524;54.364;10.072;2022-11-15T11:28:42;12.20;;;10.90;;
5010;SDS011;2524;54.364;10.072;2022-11-15T11:31:35;12.00;;;10.70;;
5010;SDS011;2524;54.364;10.072;2022-11-15T11:34:32;12.23;;;10.87;;
5010;SDS011;2524;54.364;10.072;2022-11-15T11:51:05;17.53;;;15.00;;
5010;SDS011;2524;54.364;10.072;2022-11-15T11:53:57;16.30;;;13.10;;
5010;SDS011;2524;54.364;10.072;2022-11-15T11:56:44;19.70;;;13.37;;
5010;SDS011;2524;54.364;10.072;2022-11-15T11:59:32;16.53;;;13.83;;
5010;SDS011;2524;54.364;10.072;2022-11-15T12:02:07;18.93;;;15.87;;
5010;SDS011;2524;54.364;10.072;2022-11-15T12:04:42;18.67;;;15.87;;
5010;SDS011;2524;54.364;10.072;2022-11-15T12:09:54;19.10;;;15.23;;
5010;SDS011;2524;54.364;10.072;2022-11-15T12:12:31;18.30;;;15.00;;
5010;SDS011;2524;54.364;10.072;2022-11-15T12:15:21;18.77;;;15.03;;
5010;SDS011;2524;54.364;10.072;2022-11-15T12:17:52;17.37;;;11.73;;
5010;SDS011;2524;54.364;10.072;2022-11-15T12:20:25;20.40;;;15.83;;
5010;SDS011;2524;54.364;10.072;2022-11-15T12:23:05;14.00;;;12.50;;
5010;SDS011;2524;54.364;10.072;2022-11-15T12:25:41;19.30;;;15.53;;
5010;SDS011;2524;54.364;10.072;2022-11-15T12:28:29;18.67;;;13.47;;
5010;SDS011;2524;54.364;10.072;2022-11-15T12:31:01;16.77;;;13.60;;
5010;SDS011;2524;54.364;10.072;2022-11-15T12:33:41;17.77;;;13.30;;
5010;SDS011;2524;54.364;10.072;2022-11-15T12:36:30;14.53;;;13.03;;
5010;SDS011;2524;54.364;10.072;2022-11-15T12:39:09;13.40;;;12.00;;
5010;SDS011;2524;54.364;10.072;2022-11-15T12:41:37;17.27;;;14.43;;
5010;SDS011;2524;54.364;10.072;2022-11-15T12:44:11;15.40;;;12.80;;
5010;SDS011;2524;54.364;10.072;2022-11-15T12:57:35;17.23;;;14.30;;
5010;SDS011;2524;54.364;10.072;2022-11-15T12:59:53;13.40;;;11.60;;
5010;SDS011;2524;54.364;10.072;2022-11-15T13:02:23;13.30;;;11.43;;
5010;SDS011;2524;54.364;10.072;2022-11-15T13:04:52;12.23;;;10.90;;
5010;SDS011;2524;54.364;10.072;2022-11-15T13:10:01;9.13;;;8.23;;
5010;SDS011;2524;54.364;10.072;2022-11-15T13:12:59;19.13;;;15.77;;
5010;SDS011;2524;54.364;10.072;2022-11-15T13:17:58;12.40;;;11.10;;
5010;SDS011;2524;54.364;10.072;2022-11-15T13:20:29;16.47;;;13.20;;
5010;SDS011;2524;54.364;10.072;2022-11-15T13:23:09;15.00;;;11.30;;
5010;SDS011;2524;54.364;10.072;2022-11-15T13:31:02;13.27;;;11.50;;
5010;SDS011;2524;54.364;10.072;2022-11-15T13:33:35;13.77;;;11.70;;
5010;SDS011;2524;54.364;10.072;2022-11-15T13:36:07;12.00;;;10.17;;
5010;SDS011;2524;54.364;10.072;2022-11-15T13:38:45;16.97;;;14.43;;
5010;SDS011;2524;54.364;10.072;2022-11-15T13:41:22;14.13;;;12.30;;
5010;SDS011;2524;54.364;10.072;2022-11-15T13:43:50;15.07;;;12.17;;
5010;SDS011;2524;54.364;10.072;2022-11-15T13:46:17;13.20;;;11.80;;
5010;SDS011;2524;54.364;10.072;2022-11-15T13:51:35;13.93;;;10.80;;
5010;SDS011;2524;54.364;10.072;2022-11-15T13:56:39;15.70;;;13.40;;
5010;SDS011;2524;54.364;10.072;2022-11-15T13:59:25;13.80;;;12.00;;
5010;SDS011;2524;54.364;10.072;2022-11-15T14:01:53;13.67;;;12.23;;
5010;SDS011;2524;54.364;10.072;2022-11-15T14:04:22;16.90;;;13.03;;
5010;SDS011;2524;54.364;10.072;2022-11-15T14:06:51;14.57;;;12.60;;
5010;SDS011;2524;54.364;10.072;2022-11-15T14:14:57;10.90;;;9.70;;
5010;SDS011;2524;54.364;10.072;2022-11-15T14:19:56;15.10;;;12.47;;
5010;SDS011;2524;54.364;10.072;2022-11-15T14:22:26;12.67;;;10.30;;
5010;SDS011;2524;54.364;10.072;2022-11-15T14:27:40;7.90;;;7.20;;
5010;SDS011;2524;54.364;10.072;2022-11-15T14:30:12;7.60;;;7.00;;
5010;SDS011;2524;54.364;10.072;2022-11-15T14:32:46;9.13;;;8.33;;
5010;SDS011;2524;54.364;10.072;2022-11-15T14:35:18;7.80;;;7.10;;
5010;SDS011;2524;54.364;10.072;2022-11-15T14:37:46;12.20;;;10.60;;
5010;SDS011;2524;54.364;10.072;2022-11-15T14:40:13;14.83;;;11.93;;
5010;SDS011;2524;54.364;10.072;2022-11-15T14:42:42;11.00;;;9.83;;
5010;SDS011;2524;54.364;10.072;2022-11-15T14:45:10;13.53;;;11.07;;
5010;SDS011;2524;54.364;10.072;2022-11-15T14:47:38;12.87;;;10.83;;
5010;SDS011;2524;54.364;10.072;2022-11-15T14:50:04;12.70;;;10.20;;
5010;SDS011;2524;54.364;10.072;2022-11-15T14:52:31;10.70;;;9.60;;
5010;SDS011;2524;54.364;10.072;2022-11-15T14:55:00;14.53;;;11.27;;
5010;SDS011;2524;54.364;10.072;2022-11-15T14:57:37;19.90;;;13.27;;
5010;SDS011;2524;54.364;10.072;2022-11-15T15:00:03;14.17;;;12.40;;
5010;SDS011;2524;54.364;10.072;2022-11-15T15:02:30;14.20;;;11.67;;
5010;SDS011;2524;54.364;10.072;2022-11-15T15:04:56;13.87;;;10.90;;
5010;SDS011;2524;54.364;10.072;2022-11-15T15:07:25;14.97;;;12.10;;
5010;SDS011;2524;54.364;10.072;2022-11-15T15:09:51;16.60;;;12.70;;
5010;SDS011;2524;54.364;10.072;2022-11-15T15:12:18;16.27;;;11.67;;
5010;SDS011;2524;54.364;10.072;2022-11-15T15:14:46;15.53;;;13.03;;
5010;SDS011;2524;54.364;10.072;2022-11-15T15:17:12;17.70;;;13.50;;
5010;SDS011;2524;54.364;10.072;2022-11-15T15:19:39;14.33;;;11.40;;
5010;SDS011;2524;54.364;10.072;2022-11-15T15:22:05;14.53;;;11.70;;
5010;SDS011;2524;54.364;10.072;2022-11-15T15:24:30;16.40;;;12.53;;
5010;SDS011;2524;54.364;10.072;2022-11-15T15:26:56;13.77;;;12.30;;
5010;SDS011;2524;54.364;10.072;2022-11-15T15:29:22;12.63;;;11.30;;
5010;SDS011;2524;54.364;10.072;2022-11-15T15:31:47;12.83;;;11.43;;
5010;SDS011;2524;54.364;10.072;2022-11-15T15:34:13;12.50;;;10.33;;
5010;SDS011;2524;54.364;10.072;2022-11-15T15:36:38;11.53;;;9.40;;
5010;SDS011;2524;54.364;10.072;2022-11-15T15:39:04;10.80;;;9.70;;
5010;SDS011;2524;54.364;10.072;2022-11-15T15:41:29;9.07;;;8.20;;
5010;SDS011;2524;54.364;10.072;2022-11-15T15:43:55;8.90;;;8.00;;
5010;SDS011;2524;54.364;10.072;2022-11-15T15:46:20;9.10;;;8.20;;
5010;SDS011;2524;54.364;10.072;2022-11-15T15:48:46;11.40;;;10.20;;
5010;SDS011;2524;54.364;10.072;2022-11-15T15:51:12;7.90;;;7.20;;
5010;SDS011;2524;54.364;10.072;2022-11-15T15:53:38;7.10;;;6.50;;
5010;SDS011;2524;54.364;10.072;2022-11-15T15:56:04;6.83;;;6.30;;
5010;SDS011;2524;54.364;10.072;2022-11-15T15:58:33;6.20;;;5.60;;
5010;SDS011;2524;54.364;10.072;2022-11-15T16:00:58;6.23;;;5.73;;
5010;SDS011;2524;54.364;10.072;2022-11-15T16:03:24;5.67;;;5.20;;
5010;SDS011;2524;54.364;10.072;2022-11-15T16:05:52;5.10;;;4.77;;
5010;SDS011;2524;54.364;10.072;2022-11-15T16:08:19;7.03;;;6.43;;
5010;SDS011;2524;54.364;10.072;2022-11-15T16:10:46;7.10;;;6.60;;
5010;SDS011;2524;54.364;10.072;2022-11-15T16:13:12;8.40;;;6.80;;
5010;SDS011;2524;54.364;10.072;2022-11-15T16:15:40;6.07;;;5.57;;
5010;SDS011;2524;54.364;10.072;2022-11-15T16:18:15;5.90;;;5.40;;
5010;SDS011;2524;54.364;10.072;2022-11-15T16:20:42;4.87;;;4.57;;
5010;SDS011;2524;54.364;10.072;2022-11-15T16:23:13;7.20;;;6.60;;
5010;SDS011;2524;54.364;10.072;2022-11-15T16:28:20;8.37;;;7.57;;